sensor_id;sensor_type;location;lat;lon;timestamp;pressure;altitude;pressure_sealevel;temperature;humidity
83200;BME280;73092;49.132;8.920;2024-03-02T00:02:24;98235.91;;;3.19;100.00
83200;BME280;73092;49.132;8.920;2024-03-02T00:04:52;98235.84;;;3.22;100.00
83200;BME280;73092;49.132;8.920;2024-03-02T00:07:17;98235.03;;;3.20;100.00
83200;BME280;73092;49.132;8.920;2024-03-02T00:09:43;98237.63;;;3.20;100.00
83200;BME280;73092;49.132;8.920;2024-03-02T00:12:11;98235.78;;;3.25;100.00
83200;BME280;73092;49.132;8.920;2024-03-02T00:14:40;98237.63;;;3.20;100.00
83200;BME280;73092;49.132;8.920;2024-03-02T00:17:17;98235.97;;;3.16;100.00
83200;BME280;73092;49.132;8.920;2024-03-02T00:19:46;98227.31;;;3.17;100.00
83200;BME280;73092;49.132;8.920;2024-03-02T00:22:12;98223.88;;;3.15;100.00
83200;BME280;73092;49.132;8.920;2024-03-02T00:24:38;98232.50;;;3.17;100.00
83200;BME280;73092;49.132;8.920;2024-03-02T00:27:05;98225.56;;;3.16;100.00
83200;BME280;73092;49.132;8.920;2024-03-02T00:29:30;98221.34;;;3.12;100.00
83200;BME280;73092;49.132;8.920;2024-03-02T00:31:57;98232.56;;;3.14;100.00
83200;BME280;73092;49.132;8.920;2024-03-02T00:34:23;98229.91;;;3.17;100.00
83200;BME280;73092;49.132;8.920;2024-03-02T00:36:48;98224.81;;;3.11;100.00
83200;BME280;73092;49.132;8.920;2024-03-02T00:39:17;98225.56;;;3.16;100.00
83200;BME280;73092;49.132;8.920;2024-03-02T00:41:43;98214.50;;;3.08;100.00
83200;BME280;73092;49.132;8.920;2024-03-02T00:44:15;98227.44;;;3.11;100.00
83200;BME280;73092;49.132;8.920;2024-03-02T00:46:41;98221.44;;;3.06;100.00
83200;BME280;73092;49.132;8.920;2024-03-02T00:49:23;98227.47;;;3.08;100.00
83200;BME280;73092;49.132;8.920;2024-03-02T00:51:50;98227.31;;;3.17;100.00
83200;BME280;73092;49.132;8.920;2024-03-02T00:54:26;98230.03;;;3.11;100.00
83200;BME280;73092;49.132;8.920;2024-03-02T00:56:54;98218.75;;;3.12;100.00
83200;BME280;73092;49.132;8.920;2024-03-02T00:59:22;98224.84;;;3.09;100.00
83200;BME280;73092;49.132;8.920;2024-03-02T01:01:48;98222.19;;;3.14;100.00
83200;BME280;73092;49.132;8.920;2024-03-02T01:04:14;98227.44;;;3.11;100.00
83200;BME280;73092;49.132;8.920;2024-03-02T01:06:39;98232.38;;;3.23;100.00
83200;BME280;73092;49.132;8.920;2024-03-02T01:09:04;98229.13;;;3.12;100.00
83200;BME280;73092;49.132;8.920;2024-03-02T01:11:30;98234.31;;;3.12;100.00
83200;BME280;73092;49.132;8.920;2024-03-02T01:13:55;98226.63;;;3.07;100.00
83200;BME280;73092;49.132;8.920;2024-03-02T01:16:21;98235.97;;;3.16;100.00
83200;BME280;73092;49.132;8.920;2024-03-02T01:18:46;98230.88;;;3.10;100.00
83200;BME280;73092;49.132;8.920;2024-03-02T01:21:11;98237.88;;;3.06;100.00
83200;BME280;73092;49.132;8.920;2024-03-02T01:23:37;98233.75;;;2.96;100.00
83200;BME280;73092;49.132;8.920;2024-03-02T01:26:03;98227.03;;;2.84;100.00
83200;BME280;73092;49.132;8.920;2024-03-02T01:28:28;98219.25;;;2.84;100.00
83200;BME280;73092;49.132;8.920;2024-03-02T01:30:54;98224.47;;;2.81;100.00
83200;BME280;73092;49.132;8.920;2024-03-02T01:33:19;98227.28;;;2.69;100.00
83200;BME280;73092;49.132;8.920;2024-03-02T01:35:45;98225.53;;;2.71;100.00
83200;BME280;73092;49.132;8.920;2024-03-02T01:38:10;98212.00;;;2.52;100.00
83200;BME280;73092;49.132;8.920;2024-03-02T01:40:37;98225.09;;;2.44;100.00
83200;BME280;73092;49.132;8.920;2024-03-02T01:43:06;98223.50;;;2.37;100.00
83200;BME280;73092;49.132;8.920;2024-03-02T01:45:33;98218.41;;;2.31;100.00
83200;BME280;73092;49.132;8.920;2024-03-02T01:47:59;98216.78;;;2.24;100.00
83200;BME280;73092;49.132;8.920;2024-03-02T01:50:28;98221.94;;;2.27;100.00
83200;BME280;73092;49.132;8.920;2024-03-02T01:52:55;98220.47;;;2.11;100.00
83200;BME280;73092;49.132;8.920;2024-03-02T01:55:20;98222.34;;;1.99;100.00
83200;BME280;73092;49.132;8.920;2024-03-02T01:57:46;98218.97;;;1.91;100.00
83200;BME280;73092;49.132;8.920;2024-03-02T02:00:13;98218.13;;;1.91;100.00
83200;BME280;73092;49.132;8.920;2024-03-02T02:02:39;98208.81;;;1.79;100.00
83200;BME280;73092;49.132;8.920;2024-03-02T02:05:04;98213.19;;;1.74;100.00
83200;BME280;73092;49.132;8.920;2024-03-02T02:07:30;98215.88;;;1.68;100.00
83200;BME280;73092;49.132;8.920;2024-03-02T02:09:55;98210.00;;;1.53;100.00
83200;BME280;73092;49.132;8.920;2024-03-02T02:12:21;98217.03;;;1.44;100.00
83200;BME280;73092;49.132;8.920;2024-03-02T02:14:49;98210.22;;;1.36;100.00
83200;BME280;73092;49.132;8.920;2024-03-02T02:17:17;98207.69;;;1.32;100.00
83200;BME280;73092;49.132;8.920;2024-03-02T02:19:43;98216.31;;;1.31;100.00
83200;BME280;73092;49.132;8.920;2024-03-02T02:22:09;98213.00;;;1.20;100.00
83200;BME280;73092;49.132;8.920;2024-03-02T02:24:35;98219.00;;;1.22;100.00
83200;BME280;73092;49.132;8.920;2024-03-02T02:27:00;98203.59;;;1.14;100.00
83200;BME280;73092;49.132;8.920;2024-03-02T02:29:26;98206.16;;;1.12;100.00
83200;BME280;73092;49.132;8.920;2024-03-02T02:31:52;98207.06;;;1.11;100.00
83200;BME280;73092;49.132;8.920;2024-03-02T02:34:17;98201.97;;;1.04;100.00
83200;BME280;73092;49.132;8.920;2024-03-02T02:36:42;98199.47;;;0.96;100.00
83200;BME280;73092;49.132;8.920;2024-03-02T02:39:12;98202.03;;;0.96;100.00
83200;BME280;73092;49.132;8.920;2024-03-02T02:41:39;98195.25;;;0.86;100.00
83200;BME280;73092;49.132;8.920;2024-03-02T02:44:04;98192.78;;;0.77;100.00
83200;BME280;73092;49.132;8.920;2024-03-02T02:46:30;98188.50;;;0.73;100.00
83200;BME280;73092;49.132;8.920;2024-03-02T02:48:55;98185.97;;;0.66;100.00
83200;BME280;73092;49.132;8.920;2024-03-02T02:51:20;98184.28;;;0.62;100.00
83200;BME280;73092;49.132;8.920;2024-03-02T02:53:46;98183.47;;;0.57;100.00
83200;BME280;73092;49.132;8.920;2024-03-02T02:56:11;98180.06;;;0.54;100.00
83200;BME280;73092;49.132;8.920;2024-03-02T02:58:37;98182.66;;;0.52;100.00
83200;BME280;73092;49.132;8.920;2024-03-02T03:01:03;98187.81;;;0.52;100.00
83200;BME280;73092;49.132;8.920;2024-03-02T03:03:29;98181.03;;;0.42;100.00
83200;BME280;73092;49.132;8.920;2024-03-02T03:05:54;98179.31;;;0.41;100.00
83200;BME280;73092;49.132;8.920;2024-03-02T03:08:20;98180.19;;;0.37;100.00
83200;BME280;73092;49.132;8.920;2024-03-02T03:10:45;98173.41;;;0.27;100.00
83200;BME280;73092;49.132;8.920;2024-03-02T03:13:10;98182.06;;;0.21;100.00
83200;BME280;73092;49.132;8.920;2024-03-02T03:15:36;98171.72;;;0.22;100.00
83200;BME280;73092;49.132;8.920;2024-03-02T03:18:02;98179.44;;;0.27;100.00
83200;BME280;73092;49.132;8.920;2024-03-02T03:20:29;98172.50;;;0.31;100.00
83200;BME280;73092;49.132;8.920;2024-03-02T03:22:55;98182.06;;;0.22;100.00
83200;BME280;73092;49.132;8.920;2024-03-02T03:25:21;98172.63;;;0.15;100.00
83200;BME280;73092;49.132;8.920;2024-03-02T03:27:46;98175.22;;;0.15;100.00
83200;BME280;73092;49.132;8.920;2024-03-02T03:30:12;98177.78;;;0.18;100.00
83200;BME280;73092;49.132;8.920;2024-03-02T03:32:37;98181.22;;;0.20;100.00
83200;BME280;73092;49.132;8.920;2024-03-02T03:35:03;98168.31;;;0.19;100.00
83200;BME280;73092;49.132;8.920;2024-03-02T03:37:29;98169.13;;;0.26;100.00
83200;BME280;73092;49.132;8.920;2024-03-02T03:40:05;98177.72;;;0.25;100.00
83200;BME280;73092;49.132;8.920;2024-03-02T03:42:37;98173.31;;;0.36;100.00
83200;BME280;73092;49.132;8.920;2024-03-02T03:45:03;98170.66;;;0.45;100.00
83200;BME280;73092;49.132;8.920;2024-03-02T03:47:28;98174.00;;;0.53;100.00
83200;BME280;73092;49.132;8.920;2024-03-02T03:49:54;98170.59;;;0.51;100.00
83200;BME280;73092;49.132;8.920;2024-03-02T03:52:19;98172.31;;;0.52;100.00
83200;BME280;73092;49.132;8.920;2024-03-02T03:54:46;98179.13;;;0.59;100.00
83200;BME280;73092;49.132;8.920;2024-03-02T03:57:11;98175.63;;;0.66;100.00
83200;BME280;73092;49.132;8.920;2024-03-02T03:59:36;98177.34;;;0.67;100.00
83200;BME280;73092;49.132;8.920;2024-03-02T04:02:03;98164.44;;;0.64;100.00
83200;BME280;73092;49.132;8.920;2024-03-02T04:04:28;98158.28;;;0.75;100.00
83200;BME280;73092;49.132;8.920;2024-03-02T04:06:53;98166.88;;;0.80;100.00
83200;BME280;73092;49.132;8.920;2024-03-02T04:09:19;98170.28;;;0.85;100.00
83200;BME280;73092;49.132;8.920;2024-03-02T04:11:44;98165.88;;;0.91;100.00
83200;BME280;73092;49.132;8.920;2024-03-02T04:14:10;98166.75;;;0.92;100.00
83200;BME280;73092;49.132;8.920;2024-03-02T04:16:35;98165.03;;;0.91;100.00
83200;BME280;73092;49.132;8.920;2024-03-02T04:19:00;98163.31;;;0.90;100.00
83200;BME280;73092;49.132;8.920;2024-03-02T04:21:26;98164.91;;;1.00;100.00
83200;BME280;73092;49.132;8.920;2024-03-02T04:23:51;98164.75;;;1.12;100.00
83200;BME280;73092;49.132;8.920;2024-03-02T04:26:17;98162.06;;;1.22;100.00
83200;BME280;73092;49.132;8.920;2024-03-02T04:28:47;98155.91;;;1.32;100.00
83200;BME280;73092;49.132;8.920;2024-03-02T04:31:12;98156.81;;;1.29;100.00
83200;BME280;73092;49.132;8.920;2024-03-02T04:33:37;98162.72;;;1.39;100.00
83200;BME280;73092;49.132;8.920;2024-03-02T04:36:03;98161.75;;;1.46;100.00
83200;BME280;73092;49.132;8.920;2024-03-02T04:38:29;98159.13;;;1.49;100.00
83200;BME280;73092;49.132;8.920;2024-03-02T04:40:55;98152.28;;;1.45;100.00
83200;BME280;73092;49.132;8.920;2024-03-02T04:43:20;98145.25;;;1.53;100.00
83200;BME280;73092;49.132;8.920;2024-03-02T04:45:46;98144.41;;;1.53;100.00
83200;BME280;73092;49.132;8.920;2024-03-02T04:48:11;98160.75;;;1.56;100.00
83200;BME280;73092;49.132;8.920;2024-03-02T04:50:37;98150.25;;;1.66;100.00
83200;BME280;73092;49.132;8.920;2024-03-02T04:53:02;98161.31;;;1.78;100.00
83200;BME280;73092;49.132;8.920;2024-03-02T04:55:27;98164.06;;;1.68;100.00
83200;BME280;73092;49.132;8.920;2024-03-02T04:57:53;98157.31;;;1.57;100.00
83200;BME280;73092;49.132;8.920;2024-03-02T05:00:21;98165.22;;;1.45;100.00
83200;BME280;73092;49.132;8.920;2024-03-02T05:02:46;98159.22;;;1.43;100.00
83200;BME280;73092;49.132;8.920;2024-03-02T05:05:12;98154.84;;;1.47;100.00
83200;BME280;73092;49.132;8.920;2024-03-02T05:07:37;98156.41;;;1.58;100.00
83200;BME280;73092;49.132;8.920;2024-03-02T05:10:03;98145.44;;;2.00;100.00
83200;BME280;73092;49.132;8.920;2024-03-02T05:12:28;98150.31;;;2.18;100.00
83200;BME280;73092;49.132;8.920;2024-03-02T05:15:13;98155.81;;;2.52;100.00
83200;BME280;73092;49.132;8.920;2024-03-02T05:17:42;98162.31;;;2.75;100.00
83200;BME280;73092;49.132;8.920;2024-03-02T05:20:10;98169.41;;;2.67;100.00
83200;BME280;73092;49.132;8.920;2024-03-02T05:22:36;98177.25;;;2.64;100.00
83200;BME280;73092;49.132;8.920;2024-03-02T05:25:02;98183.38;;;2.57;100.00
83200;BME280;73092;49.132;8.920;2024-03-02T05:27:28;98183.16;;;2.70;100.00
83200;BME280;73092;49.132;8.920;2024-03-02T05:29:56;98188.38;;;2.69;100.00
83200;BME280;73092;49.132;8.920;2024-03-02T05:32:21;98189.94;;;2.79;100.00
83200;BME280;73092;49.132;8.920;2024-03-02T05:34:47;98175.38;;;3.17;100.00
83200;BME280;73092;49.132;8.920;2024-03-02T05:37:12;98178.72;;;3.22;100.00
83200;BME280;73092;49.132;8.920;2024-03-02T05:39:37;98188.69;;;3.43;100.00
83200;BME280;73092;49.132;8.920;2024-03-02T05:42:03;98194.19;;;3.28;100.00
83200;BME280;73092;49.132;8.920;2024-03-02T05:44:29;98202.19;;;3.17;100.00
83200;BME280;73092;49.132;8.920;2024-03-02T05:46:55;98199.00;;;3.03;100.00
83200;BME280;73092;49.132;8.920;2024-03-02T05:49:20;98204.28;;;2.97;100.00
83200;BME280;73092;49.132;8.920;2024-03-02T05:51:46;98207.00;;;2.92;100.00
83200;BME280;73092;49.132;8.920;2024-03-02T05:54:12;98214.91;;;2.85;100.00
83200;BME280;73092;49.132;8.920;2024-03-02T05:56:37;98213.84;;;2.96;100.00
83200;BME280;73092;49.132;8.920;2024-03-02T05:59:02;98212.06;;;2.98;100.00
83200;BME280;73092;49.132;8.920;2024-03-02T06:01:45;98215.69;;;2.88;100.00
83200;BME280;73092;49.132;8.920;2024-03-02T06:04:16;98218.44;;;2.81;100.00
83200;BME280;73092;49.132;8.920;2024-03-02T06:06:42;98210.84;;;2.70;100.00
83200;BME280;73092;49.132;8.920;2024-03-02T06:09:08;98214.41;;;2.63;100.00
83200;BME280;73092;49.132;8.920;2024-03-02T06:11:35;98214.41;;;2.63;100.00
83200;BME280;73092;49.132;8.920;2024-03-02T06:14:01;98197.16;;;2.62;100.00
83200;BME280;73092;49.132;8.920;2024-03-02T06:16:26;98213.56;;;2.62;100.00
83200;BME280;73092;49.132;8.920;2024-03-02T06:18:52;98205.78;;;2.64;100.00
83200;BME280;73092;49.132;8.920;2024-03-02T06:21:19;98204.16;;;2.57;100.00
83200;BME280;73092;49.132;8.920;2024-03-02T06:23:44;98206.84;;;2.50;100.00
83200;BME280;73092;49.132;8.920;2024-03-02T06:26:10;98215.50;;;2.51;100.00
83200;BME280;73092;49.132;8.920;2024-03-02T06:28:35;98211.16;;;2.51;100.00
83200;BME280;73092;49.132;8.920;2024-03-02T06:31:01;98209.44;;;2.50;100.00
83200;BME280;73092;49.132;8.920;2024-03-02T06:33:27;98204.34;;;2.44;100.00
83200;BME280;73092;49.132;8.920;2024-03-02T06:35:53;98208.69;;;2.44;100.00
83200;BME280;73092;49.132;8.920;2024-03-02T06:38:19;98209.53;;;2.46;100.00
83200;BME280;73092;49.132;8.920;2024-03-02T06:40:44;98211.97;;;2.55;100.00
83200;BME280;73092;49.132;8.920;2024-03-02T06:43:09;98216.97;;;2.66;100.00
83200;BME280;73092;49.132;8.920;2024-03-02T06:45:35;98221.28;;;2.67;100.00
83200;BME280;73092;49.132;8.920;2024-03-02T06:48:00;98214.22;;;2.75;100.00
83200;BME280;73092;49.132;8.920;2024-03-02T06:50:28;98221.13;;;2.76;100.00
83200;BME280;73092;49.132;8.920;2024-03-02T06:52:54;98219.34;;;2.78;100.00
83200;BME280;73092;49.132;8.920;2024-03-02T06:55:21;98215.78;;;2.85;100.00
83200;BME280;73092;49.132;8.920;2024-03-02T06:57:47;98217.47;;;2.86;100.00
83200;BME280;73092;49.132;8.920;2024-03-02T07:00:13;98206.94;;;2.95;100.00
83200;BME280;73092;49.132;8.920;2024-03-02T07:02:39;98205.09;;;3.00;100.00
83200;BME280;73092;49.132;8.920;2024-03-02T07:05:06;98209.19;;;3.14;100.00
83200;BME280;73092;49.132;8.920;2024-03-02T07:07:32;98215.81;;;3.29;100.00
83200;BME280;73092;49.132;8.920;2024-03-02T07:09:58;98218.16;;;3.42;100.00
83200;BME280;73092;49.132;8.920;2024-03-02T07:12:23;98216.34;;;3.44;100.00
83200;BME280;73092;49.132;8.920;2024-03-02T07:14:49;98224.94;;;3.50;100.00
83200;BME280;73092;49.132;8.920;2024-03-02T07:17:29;98225.97;;;3.41;100.00
83200;BME280;73092;49.132;8.920;2024-03-02T07:19:55;98227.75;;;3.37;100.00
83200;BME280;73092;49.132;8.920;2024-03-02T07:22:21;98223.22;;;3.48;100.00
83200;BME280;73092;49.132;8.920;2024-03-02T07:24:46;98223.78;;;3.63;100.00
83200;BME280;73092;49.132;8.920;2024-03-02T07:27:12;98226.97;;;3.76;100.00
83200;BME280;73092;49.132;8.920;2024-03-02T07:29:39;98229.16;;;3.96;100.00
83200;BME280;73092;49.132;8.920;2024-03-02T07:32:06;98231.28;;;4.17;100.00
83200;BME280;73092;49.132;8.920;2024-03-02T07:34:32;98242.19;;;3.94;100.00
83200;BME280;73092;49.132;8.920;2024-03-02T07:36:57;98233.78;;;3.83;100.00
83200;BME280;73092;49.132;8.920;2024-03-02T07:39:24;98234.81;;;3.74;100.00
83200;BME280;73092;49.132;8.920;2024-03-02T07:41:50;98233.06;;;3.76;100.00
83200;BME280;73092;49.132;8.920;2024-03-02T07:44:16;98230.44;;;3.76;100.00
83200;BME280;73092;49.132;8.920;2024-03-02T07:46:42;98232.34;;;3.68;100.00
83200;BME280;73092;49.132;8.920;2024-03-02T07:49:08;98234.88;;;3.71;100.00
83200;BME280;73092;49.132;8.920;2024-03-02T07:51:33;98234.16;;;3.64;100.00
83200;BME280;73092;49.132;8.920;2024-03-02T07:53:59;98238.56;;;3.61;100.00
83200;BME280;73092;49.132;8.920;2024-03-02T07:56:24;98236.03;;;3.58;100.00
83200;BME280;73092;49.132;8.920;2024-03-02T07:58:50;98239.38;;;3.63;100.00
83200;BME280;73092;49.132;8.920;2024-03-02T08:01:15;98240.13;;;3.68;100.00
83200;BME280;73092;49.132;8.920;2024-03-02T08:03:43;98248.59;;;3.79;100.00
83200;BME280;73092;49.132;8.920;2024-03-02T08:06:13;98252.06;;;3.78;100.00
83200;BME280;73092;49.132;8.920;2024-03-02T08:08:40;98252.00;;;3.81;100.00
83200;BME280;73092;49.132;8.920;2024-03-02T08:11:05;98249.31;;;3.84;100.00
83200;BME280;73092;49.132;8.920;2024-03-02T08:13:31;98250.94;;;3.90;100.00
83200;BME280;73092;49.132;8.920;2024-03-02T08:15:56;98248.88;;;4.06;100.00
83200;BME280;73092;49.132;8.920;2024-03-02T08:18:22;98247.69;;;4.19;100.00
83200;BME280;73092;49.132;8.920;2024-03-02T08:20:47;98248.03;;;4.43;100.00
83200;BME280;73092;49.132;8.920;2024-03-02T08:23:12;98251.63;;;4.73;100.00
83200;BME280;73092;49.132;8.920;2024-03-02T08:25:38;98243.94;;;5.02;100.00
83200;BME280;73092;49.132;8.920;2024-03-02T08:28:03;98249.59;;;5.18;99.99
83200;BME280;73092;49.132;8.920;2024-03-02T08:30:29;98243.84;;;5.38;98.96
83200;BME280;73092;49.132;8.920;2024-03-02T08:32:55;98233.56;;;5.63;96.28
83200;BME280;73092;49.132;8.920;2024-03-02T08:35:20;98240.97;;;5.78;95.90
83200;BME280;73092;49.132;8.920;2024-03-02T08:37:47;98224.94;;;5.92;95.25
83200;BME280;73092;49.132;8.920;2024-03-02T08:40:13;98224.47;;;6.08;94.46
83200;BME280;73092;49.132;8.920;2024-03-02T08:42:39;98237.69;;;6.31;92.05
83200;BME280;73092;49.132;8.920;2024-03-02T08:45:04;98230.63;;;6.61;91.00
83200;BME280;73092;49.132;8.920;2024-03-02T08:47:31;98231.53;;;6.87;88.51
83200;BME280;73092;49.132;8.920;2024-03-02T08:49:56;98224.13;;;7.00;87.47
83200;BME280;73092;49.132;8.920;2024-03-02T08:52:22;98226.22;;;7.15;84.95
83200;BME280;73092;49.132;8.920;2024-03-02T08:54:47;98222.03;;;7.34;84.90
83200;BME280;73092;49.132;8.920;2024-03-02T08:57:12;98219.72;;;7.50;82.61
83200;BME280;73092;49.132;8.920;2024-03-02T08:59:38;98228.59;;;7.70;81.55
83200;BME280;73092;49.132;8.920;2024-03-02T09:02:04;98223.03;;;7.79;79.75
83200;BME280;73092;49.132;8.920;2024-03-02T09:04:29;98227.09;;;7.86;79.74
83200;BME280;73092;49.132;8.920;2024-03-02T09:06:55;98234.50;;;7.98;79.77
83200;BME280;73092;49.132;8.920;2024-03-02T09:09:20;98232.88;;;8.18;80.47
83200;BME280;73092;49.132;8.920;2024-03-02T09:11:46;98236.13;;;8.24;79.51
83200;BME280;73092;49.132;8.920;2024-03-02T09:14:11;98228.63;;;8.37;79.67
83200;BME280;73092;49.132;8.920;2024-03-02T09:16:37;98225.72;;;8.45;78.87
83200;BME280;73092;49.132;8.920;2024-03-02T09:19:03;98223.78;;;8.72;78.87
83200;BME280;73092;49.132;8.920;2024-03-02T09:21:28;98224.16;;;8.83;77.50
83200;BME280;73092;49.132;8.920;2024-03-02T09:23:55;98219.03;;;8.80;75.78
83200;BME280;73092;49.132;8.920;2024-03-02T09:26:20;98213.16;;;8.95;76.27
83200;BME280;73092;49.132;8.920;2024-03-02T09:28:46;98224.31;;;9.21;75.24
83200;BME280;73092;49.132;8.920;2024-03-02T09:31:11;98214.13;;;9.34;74.49
83200;BME280;73092;49.132;8.920;2024-03-02T09:33:37;98215.00;;;9.34;75.05
83200;BME280;73092;49.132;8.920;2024-03-02T09:36:04;98214.47;;;9.46;74.42
83200;BME280;73092;49.132;8.920;2024-03-02T09:38:32;98210.66;;;9.54;74.02
83200;BME280;73092;49.132;8.920;2024-03-02T09:40:58;98211.00;;;9.65;74.25
83200;BME280;73092;49.132;8.920;2024-03-02T09:43:24;98211.00;;;9.65;74.09
83200;BME280;73092;49.132;8.920;2024-03-02T09:45:50;98218.47;;;9.74;73.93
83200;BME280;73092;49.132;8.920;2024-03-02T09:48:16;98213.06;;;9.77;73.37
83200;BME280;73092;49.132;8.920;2024-03-02T09:50:43;98214.25;;;9.90;72.26
83200;BME280;73092;49.132;8.920;2024-03-02T09:53:09;98210.13;;;10.04;71.75
83200;BME280;73092;49.132;8.920;2024-03-02T09:55:35;98202.84;;;10.09;70.63
83200;BME280;73092;49.132;8.920;2024-03-02T09:58:01;98204.72;;;10.07;70.84
83200;BME280;73092;49.132;8.920;2024-03-02T10:00:26;98207.41;;;10.05;70.35
83200;BME280;73092;49.132;8.920;2024-03-02T10:02:51;98206.56;;;10.05;69.33
83200;BME280;73092;49.132;8.920;2024-03-02T10:05:24;98210.97;;;10.04;70.62
83200;BME280;73092;49.132;8.920;2024-03-02T10:08:01;98203.72;;;10.09;71.88
83200;BME280;73092;49.132;8.920;2024-03-02T10:10:40;98198.50;;;10.28;71.92
83200;BME280;73092;49.132;8.920;2024-03-02T10:13:07;98197.13;;;10.38;70.68
83200;BME280;73092;49.132;8.920;2024-03-02T10:15:33;98194.34;;;10.41;70.31
83200;BME280;73092;49.132;8.920;2024-03-02T10:17:59;98194.19;;;10.45;70.41
83200;BME280;73092;49.132;8.920;2024-03-02T10:20:27;98197.84;;;10.59;69.86
83200;BME280;73092;49.132;8.920;2024-03-02T10:23:10;98196.31;;;10.73;68.99
83200;BME280;73092;49.132;8.920;2024-03-02T10:25:36;98186.88;;;10.69;68.21
83200;BME280;73092;49.132;8.920;2024-03-02T10:28:01;98195.13;;;10.61;68.66
83200;BME280;73092;49.132;8.920;2024-03-02T10:30:28;98192.16;;;10.69;68.26
83200;BME280;73092;49.132;8.920;2024-03-02T10:32:56;98185.56;;;10.77;68.50
83200;BME280;73092;49.132;8.920;2024-03-02T10:35:22;98185.25;;;10.83;67.99
83200;BME280;73092;49.132;8.920;2024-03-02T10:37:52;98182.94;;;10.95;68.72
83200;BME280;73092;49.132;8.920;2024-03-02T10:40:21;98182.94;;;10.95;66.28
83200;BME280;73092;49.132;8.920;2024-03-02T10:42:46;98179.00;;;11.03;67.55
83200;BME280;73092;49.132;8.920;2024-03-02T10:45:15;98180.44;;;11.09;66.48
83200;BME280;73092;49.132;8.920;2024-03-02T10:47:42;98173.84;;;11.18;66.96
83200;BME280;73092;49.132;8.920;2024-03-02T10:50:08;98174.88;;;11.15;66.67
83200;BME280;73092;49.132;8.920;2024-03-02T10:52:42;98176.59;;;11.16;66.85
83200;BME280;73092;49.132;8.920;2024-03-02T10:55:09;98173.69;;;11.21;68.25
83200;BME280;73092;49.132;8.920;2024-03-02T10:58:00;98173.91;;;11.33;66.93
83200;BME280;73092;49.132;8.920;2024-03-02T11:00:34;98172.06;;;11.35;66.52
83200;BME280;73092;49.132;8.920;2024-03-02T11:03:05;98165.31;;;11.47;66.60
83200;BME280;73092;49.132;8.920;2024-03-02T11:05:36;98169.38;;;11.53;65.35
83200;BME280;73092;49.132;8.920;2024-03-02T11:08:07;98164.56;;;11.61;65.38
83200;BME280;73092;49.132;8.920;2024-03-02T11:10:35;98170.44;;;11.66;65.66
83200;BME280;73092;49.132;8.920;2024-03-02T11:13:05;98159.38;;;11.60;65.11
83200;BME280;73092;49.132;8.920;2024-03-02T11:15:31;98160.41;;;11.57;64.21
83200;BME280;73092;49.132;8.920;2024-03-02T11:17:59;98152.91;;;11.65;66.18
83200;BME280;73092;49.132;8.920;2024-03-02T11:20:26;98158.78;;;11.70;63.86
83200;BME280;73092;49.132;8.920;2024-03-02T11:22:52;98147.59;;;11.82;64.64
83200;BME280;73092;49.132;8.920;2024-03-02T11:25:27;98139.06;;;11.95;64.16
83200;BME280;73092;49.132;8.920;2024-03-02T11:32:59;98132.72;;;12.29;62.87
83200;BME280;73092;49.132;8.920;2024-03-02T11:35:25;98129.13;;;12.46;61.72
83200;BME280;73092;49.132;8.920;2024-03-02T11:37:51;98123.00;;;12.45;60.68
83200;BME280;73092;49.132;8.920;2024-03-02T11:40:22;98121.50;;;12.41;60.46
83200;BME280;73092;49.132;8.920;2024-03-02T11:42:47;98119.28;;;12.34;59.81
83200;BME280;73092;49.132;8.920;2024-03-02T11:45:16;98114.59;;;12.39;61.15
83200;BME280;73092;49.132;8.920;2024-03-02T11:47:46;98111.44;;;12.48;61.10
83200;BME280;73092;49.132;8.920;2024-03-02T11:50:34;98102.53;;;12.65;59.39
83200;BME280;73092;49.132;8.920;2024-03-02T11:53:00;98101.13;;;12.73;59.35
83200;BME280;73092;49.132;8.920;2024-03-02T11:55:26;98096.44;;;12.79;56.99
83200;BME280;73092;49.132;8.920;2024-03-02T11:57:52;98094.78;;;12.92;57.06
83200;BME280;73092;49.132;8.920;2024-03-02T12:00:18;98080.63;;;12.93;57.36
83200;BME280;73092;49.132;8.920;2024-03-02T12:02:45;98078.75;;;12.95;57.61
83200;BME280;73092;49.132;8.920;2024-03-02T12:05:15;98076.28;;;12.78;57.97
83200;BME280;73092;49.132;8.920;2024-03-02T12:07:42;98076.66;;;12.86;57.33
83200;BME280;73092;49.132;8.920;2024-03-02T12:10:08;98081.56;;;12.92;57.75
83200;BME280;73092;49.132;8.920;2024-03-02T12:12:34;98079.13;;;12.89;57.52
83200;BME280;73092;49.132;8.920;2024-03-02T12:14:59;98076.75;;;12.84;56.18
83200;BME280;73092;49.132;8.920;2024-03-02T12:17:26;98074.22;;;12.83;56.67
83200;BME280;73092;49.132;8.920;2024-03-02T12:19:51;98082.50;;;12.91;56.46
83200;BME280;73092;49.132;8.920;2024-03-02T12:22:18;98071.75;;;12.94;55.73
83200;BME280;73092;49.132;8.920;2024-03-02T12:24:44;98067.47;;;13.07;57.33
83200;BME280;73092;49.132;8.920;2024-03-02T12:27:12;98066.13;;;13.14;55.73
83200;BME280;73092;49.132;8.920;2024-03-02T12:29:38;98069.41;;;13.18;54.95
83200;BME280;73092;49.132;8.920;2024-03-02T12:32:04;98069.16;;;13.08;54.91
83200;BME280;73092;49.132;8.920;2024-03-02T12:34:30;98065.94;;;13.03;55.26
83200;BME280;73092;49.132;8.920;2024-03-02T12:36:56;98054.16;;;13.09;54.84
83200;BME280;73092;49.132;8.920;2024-03-02T12:39:22;98061.25;;;13.23;54.90
83200;BME280;73092;49.132;8.920;2024-03-02T12:41:49;98059.75;;;13.33;54.77
83200;BME280;73092;49.132;8.920;2024-03-02T12:44:17;98060.09;;;13.41;55.11
83200;BME280;73092;49.132;8.920;2024-03-02T12:46:43;98040.38;;;13.61;55.28
83200;BME280;73092;49.132;8.920;2024-03-02T12:49:10;98059.31;;;13.53;53.46
83200;BME280;73092;49.132;8.920;2024-03-02T12:51:37;98058.94;;;13.59;53.96
83200;BME280;73092;49.132;8.920;2024-03-02T12:54:05;98050.88;;;13.48;53.10
83200;BME280;73092;49.132;8.920;2024-03-02T12:56:31;98050.88;;;13.48;52.00
83200;BME280;73092;49.132;8.920;2024-03-02T12:58:59;98042.91;;;13.62;52.93
83200;BME280;73092;49.132;8.920;2024-03-02T13:01:24;98047.59;;;13.72;52.58
83200;BME280;73092;49.132;8.920;2024-03-02T13:03:51;98042.50;;;13.69;51.88
83200;BME280;73092;49.132;8.920;2024-03-02T13:06:17;98047.78;;;13.69;52.41